Time;durP1;ratioP1;P1;durP2;ratioP2;P2;SDS_P1;SDS_P2;PMS_P1;PMS_P2;Temp;Humidity;BMP_temperature;BMP_pressure;BME280_temperature;BME280_humidity;BME280_pressure;Samples;Min_cycle;Max_cycle;Signal;HPM_P1;HPM_P2
2022/03/03 00:02:38;;;;;;;20.97;9.60;;;;;;;;;;6176428;23;20511;-91
2022/03/03 00:05:43;;;;;;;24.77;10.03;;;;;;;;;;6196063;23;20167;-90
2022/03/03 00:08:49;;;;;;;26.83;10.60;;;;;;;;;;6194716;23;20176;-90
2022/03/03 00:11:54;;;;;;;28.43;11.03;;;;;;;;;;6177837;23;20155;-90
2022/03/03 00:14:59;;;;;;;25.70;10.17;;;;;;;;;;6165639;23;20172;-91
2022/03/03 00:18:04;;;;;;;27.90;10.43;;;;;;;;;;6164946;23;20168;-91
2022/03/03 00:21:13;;;;;;;25.80;10.43;;;;;;;;;;6164693;23;20241;-90
2022/03/03 00:24:19;;;;;;;23.37;9.97;;;;;;;;;;6165583;23;20176;-91
2022/03/03 00:27:24;;;;;;;23.23;9.93;;;;;;;;;;6166426;23;20177;-91
2022/03/03 00:30:29;;;;;;;31.40;10.37;;;;;;;;;;6148826;23;20224;-91
2022/03/03 00:33:35;;;;;;;27.13;10.87;;;;;;;;;;6166564;23;20172;-90
2022/03/03 00:36:40;;;;;;;27.47;10.77;;;;;;;;;;6165977;23;20184;-89
2022/03/03 00:39:46;;;;;;;28.43;11.10;;;;;;;;;;6166359;23;20243;-90
2022/03/03 00:42:51;;;;;;;28.73;10.23;;;;;;;;;;6167026;23;20176;-91
2022/03/03 00:45:56;;;;;;;23.97;10.27;;;;;;;;;;6168386;23;20168;-89
2022/03/03 00:49:02;;;;;;;24.90;10.63;;;;;;;;;;6169624;23;20226;-90
2022/03/03 00:52:08;;;;;;;27.13;10.50;;;;;;;;;;6152185;23;20173;-90
2022/03/03 00:55:14;;;;;;;23.93;10.03;;;;;;;;;;6167220;23;20792;-89
2022/03/03 00:58:21;;;;;;;26.33;10.83;;;;;;;;;;6169044;23;20244;-91
2022/03/03 01:01:26;;;;;;;24.40;10.77;;;;;;;;;;6168360;23;20621;-90
2022/03/03 01:04:31;;;;;;;25.57;10.13;;;;;;;;;;6166181;23;20151;-88
2022/03/03 01:07:36;;;;;;;27.40;10.77;;;;;;;;;;6168122;23;20180;-88
2022/03/03 01:10:42;;;;;;;25.73;10.40;;;;;;;;;;6166053;23;20821;-91
2022/03/03 01:13:49;;;;;;;22.50;9.80;;;;;;;;;;6176862;23;20199;-91
2022/03/03 01:16:55;;;;;;;24.67;10.27;;;;;;;;;;6195968;23;20171;-90
2022/03/03 01:20:02;;;;;;;32.07;11.37;;;;;;;;;;6180203;23;20191;-91
2022/03/03 01:23:08;;;;;;;28.10;10.60;;;;;;;;;;6180424;23;20164;-89
2022/03/03 01:26:15;;;;;;;24.97;10.60;;;;;;;;;;6180733;23;20955;-91
2022/03/03 01:29:20;;;;;;;27.53;10.40;;;;;;;;;;6180394;23;20168;-90
2022/03/03 01:32:25;;;;;;;21.50;9.70;;;;;;;;;;6182948;23;20163;-90
2022/03/03 01:35:30;;;;;;;28.20;10.47;;;;;;;;;;6182581;23;20167;-89
2022/03/03 01:38:35;;;;;;;25.40;9.63;;;;;;;;;;6179640;23;20192;-89
2022/03/03 01:41:41;;;;;;;29.50;10.53;;;;;;;;;;6183023;23;20187;-89
2022/03/03 01:44:47;;;;;;;24.87;9.63;;;;;;;;;;6180856;23;20171;-91
2022/03/03 01:47:52;;;;;;;24.03;9.77;;;;;;;;;;6197388;23;20519;-90
2022/03/03 01:50:58;;;;;;;31.87;10.10;;;;;;;;;;6197077;23;20192;-90
2022/03/03 01:54:04;;;;;;;24.50;10.67;;;;;;;;;;6180352;23;20192;-90
2022/03/03 01:57:12;;;;;;;24.07;9.50;;;;;;;;;;6184448;23;20191;-90
2022/03/03 02:00:17;;;;;;;29.03;10.43;;;;;;;;;;6195941;23;20581;-90
2022/03/03 02:03:22;;;;;;;23.07;9.43;;;;;;;;;;6178746;23;20180;-90
2022/03/03 02:06:27;;;;;;;23.77;9.53;;;;;;;;;;6195618;23;20663;-90
2022/03/03 02:09:32;;;;;;;27.43;9.83;;;;;;;;;;6195471;23;20284;-90
2022/03/03 02:12:38;;;;;;;26.20;9.80;;;;;;;;;;6194971;23;20172;-91
2022/03/03 02:15:48;;;;;;;24.53;9.53;;;;;;;;;;6178444;23;20163;-90
2022/03/03 02:18:53;;;;;;;25.50;9.50;;;;;;;;;;6179714;23;20235;-90
2022/03/03 02:22:00;;;;;;;25.27;10.07;;;;;;;;;;6176849;23;20164;-90
2022/03/03 02:25:05;;;;;;;27.03;10.07;;;;;;;;;;6193902;23;20168;-90
2022/03/03 02:28:10;;;;;;;30.73;11.03;;;;;;;;;;6178096;23;20168;-90
2022/03/03 02:31:16;;;;;;;26.67;10.00;;;;;;;;;;6177957;23;20196;-90
2022/03/03 02:34:21;;;;;;;23.93;9.70;;;;;;;;;;6178681;23;20243;-90
2022/03/03 02:37:32;;;;;;;30.57;11.50;;;;;;;;;;6196372;23;20167;-90
2022/03/03 02:40:36;;;;;;;27.83;10.77;;;;;;;;;;6177217;23;20198;-91
2022/03/03 02:43:41;;;;;;;29.07;10.73;;;;;;;;;;6178297;23;20171;-91
2022/03/03 02:46:46;;;;;;;29.20;11.23;;;;;;;;;;6179168;23;20179;-90
2022/03/03 02:49:51;;;;;;;31.57;11.17;;;;;;;;;;6177080;23;20172;-90
2022/03/03 02:53:01;;;;;;;28.57;10.97;;;;;;;;;;6179605;23;20168;-90
2022/03/03 02:56:07;;;;;;;27.33;10.13;;;;;;;;;;6177194;23;20172;-89
2022/03/03 02:59:13;;;;;;;27.60;10.70;;;;;;;;;;6178836;23;20175;-89
2022/03/03 03:02:17;;;;;;;27.80;10.27;;;;;;;;;;6179131;23;20168;-89
2022/03/03 03:05:23;;;;;;;26.60;10.53;;;;;;;;;;6179307;23;20753;-90
2022/03/03 03:08:29;;;;;;;30.17;10.33;;;;;;;;;;6179221;23;20167;-90
2022/03/03 03:11:34;;;;;;;28.93;10.93;;;;;;;;;;6176676;23;20148;-90
2022/03/03 03:14:39;;;;;;;31.37;10.73;;;;;;;;;;6164006;23;20224;-90
2022/03/03 03:17:44;;;;;;;27.10;11.17;;;;;;;;;;6164691;23;20300;-89
2022/03/03 03:20:49;;;;;;;33.33;11.70;;;;;;;;;;6162108;23;20196;-90
2022/03/03 03:23:57;;;;;;;31.17;11.20;;;;;;;;;;6164267;23;20550;-90
2022/03/03 03:27:02;;;;;;;27.87;10.93;;;;;;;;;;6163956;23;20172;-90
2022/03/03 03:30:07;;;;;;;37.80;11.80;;;;;;;;;;6163755;23;20378;-91
2022/03/03 03:33:13;;;;;;;29.67;11.37;;;;;;;;;;6163438;23;20175;-90
2022/03/03 03:36:17;;;;;;;23.87;10.50;;;;;;;;;;6164021;23;20624;-90
2022/03/03 03:39:23;;;;;;;29.23;11.03;;;;;;;;;;6161494;23;20192;-90
2022/03/03 03:42:28;;;;;;;38.47;11.30;;;;;;;;;;6162882;23;20196;-90
2022/03/03 03:45:35;;;;;;;30.90;10.90;;;;;;;;;;6162122;23;20228;-90
2022/03/03 03:48:44;;;;;;;25.67;10.17;;;;;;;;;;6162522;23;20238;-90
2022/03/03 03:51:49;;;;;;;29.30;11.63;;;;;;;;;;6162828;23;20172;-88
2022/03/03 03:54:55;;;;;;;25.10;9.93;;;;;;;;;;6162793;23;20172;-88
2022/03/03 03:58:00;;;;;;;28.50;10.80;;;;;;;;;;6164709;23;20249;-89
2022/03/03 04:01:05;;;;;;;28.87;10.53;;;;;;;;;;6162700;23;20517;-89
2022/03/03 04:04:09;;;;;;;27.23;10.50;;;;;;;;;;6162040;23;20256;-90
2022/03/03 04:07:14;;;;;;;25.77;10.10;;;;;;;;;;6163746;23;20192;-91
2022/03/03 04:10:20;;;;;;;26.10;10.30;;;;;;;;;;6166318;23;20628;-90
2022/03/03 04:13:25;;;;;;;26.30;10.50;;;;;;;;;;6165654;23;20234;-90
2022/03/03 04:16:30;;;;;;;24.33;10.23;;;;;;;;;;6163939;23;20511;-90
2022/03/03 04:19:35;;;;;;;30.40;9.70;;;;;;;;;;6166202;23;20180;-90
2022/03/03 04:22:40;;;;;;;25.87;10.47;;;;;;;;;;6166368;23;20180;-90
2022/03/03 04:25:48;;;;;;;30.07;10.73;;;;;;;;;;6167205;23;20175;-90
2022/03/03 04:28:53;;;;;;;27.63;10.30;;;;;;;;;;6167700;23;20173;-89
2022/03/03 04:31:58;;;;;;;28.90;10.97;;;;;;;;;;6168467;23;20288;-91
2022/03/03 04:35:03;;;;;;;27.63;10.37;;;;;;;;;;6164292;23;20208;-89
2022/03/03 04:38:08;;;;;;;28.43;10.70;;;;;;;;;;6163886;23;20624;-90
2022/03/03 04:41:15;;;;;;;26.87;10.73;;;;;;;;;;6167277;23;20236;-89
2022/03/03 04:44:20;;;;;;;24.97;9.93;;;;;;;;;;6169931;23;20153;-90
2022/03/03 04:47:25;;;;;;;31.47;11.03;;;;;;;;;;6169343;23;20308;-89
2022/03/03 04:50:30;;;;;;;24.17;9.77;;;;;;;;;;6168972;23;20220;-89
2022/03/03 04:53:34;;;;;;;27.83;10.17;;;;;;;;;;6166789;23;20168;-88
